sensor_id;sensor_type;location;lat;lon;timestamp;pressure;altitude;pressure_sealevel;temperature;humidity
84821;BME280;75463;50.988;11.332;2024-03-07T00:02:04;99683.16;;;4.30;76.43
84821;BME280;75463;50.988;11.332;2024-03-07T00:04:29;99687.19;;;4.32;75.63
84821;BME280;75463;50.988;11.332;2024-03-07T00:06:55;99686.31;;;4.27;75.94
84821;BME280;75463;50.988;11.332;2024-03-07T00:09:20;99688.09;;;4.38;76.26
84821;BME280;75463;50.988;11.332;2024-03-07T00:11:49;99678.03;;;4.40;76.36
84821;BME280;75463;50.988;11.332;2024-03-07T00:14:15;99682.28;;;4.41;76.07
84821;BME280;75463;50.988;11.332;2024-03-07T00:16:40;99685.28;;;4.44;76.24
84821;BME280;75463;50.988;11.332;2024-03-07T00:19:06;99682.88;;;4.43;75.45
84821;BME280;75463;50.988;11.332;2024-03-07T00:21:31;99683.81;;;4.37;76.31
84821;BME280;75463;50.988;11.332;2024-03-07T00:23:57;99695.59;;;4.41;75.54
84821;BME280;75463;50.988;11.332;2024-03-07T00:26:22;99685.78;;;4.41;75.95
84821;BME280;75463;50.988;11.332;2024-03-07T00:28:47;99686.72;;;4.35;75.71
84821;BME280;75463;50.988;11.332;2024-03-07T00:31:13;99687.72;;;4.46;75.47
84821;BME280;75463;50.988;11.332;2024-03-07T00:33:38;99680.44;;;4.41;75.70
84821;BME280;75463;50.988;11.332;2024-03-07T00:36:04;99682.28;;;4.41;75.75
84821;BME280;75463;50.988;11.332;2024-03-07T00:38:29;99685.84;;;4.46;75.06
84821;BME280;75463;50.988;11.332;2024-03-07T00:40:54;99676.56;;;4.48;74.28
84821;BME280;75463;50.988;11.332;2024-03-07T00:43:20;99667.75;;;4.48;73.90
84821;BME280;75463;50.988;11.332;2024-03-07T00:45:45;99664.91;;;4.49;73.98
84821;BME280;75463;50.988;11.332;2024-03-07T00:48:15;99665.75;;;4.39;74.15
84821;BME280;75463;50.988;11.332;2024-03-07T00:50:40;99667.03;;;4.36;75.02
84821;BME280;75463;50.988;11.332;2024-03-07T00:53:08;99668.41;;;4.39;74.76
84821;BME280;75463;50.988;11.332;2024-03-07T00:55:33;99666.91;;;4.43;74.02
84821;BME280;75463;50.988;11.332;2024-03-07T00:57:59;99655.41;;;4.42;73.76
84821;BME280;75463;50.988;11.332;2024-03-07T01:00:24;99656.50;;;4.41;73.84
84821;BME280;75463;50.988;11.332;2024-03-07T01:02:49;99660.66;;;4.37;73.88
84821;BME280;75463;50.988;11.332;2024-03-07T01:05:18;99643.41;;;4.40;73.80
84821;BME280;75463;50.988;11.332;2024-03-07T01:07:44;99656.63;;;4.35;74.55
84821;BME280;75463;50.988;11.332;2024-03-07T01:10:12;99648.09;;;4.33;74.03
84821;BME280;75463;50.988;11.332;2024-03-07T01:12:37;99650.75;;;4.33;73.95
84821;BME280;75463;50.988;11.332;2024-03-07T01:15:02;99647.66;;;4.24;75.07
84821;BME280;75463;50.988;11.332;2024-03-07T01:17:29;99645.25;;;4.23;74.63
84821;BME280;75463;50.988;11.332;2024-03-07T01:19:55;99642.41;;;4.29;75.06
84821;BME280;75463;50.988;11.332;2024-03-07T01:22:20;99643.00;;;4.31;74.88
84821;BME280;75463;50.988;11.332;2024-03-07T01:24:47;99650.31;;;4.24;74.71
84821;BME280;75463;50.988;11.332;2024-03-07T01:27:12;99640.41;;;4.36;75.19
84821;BME280;75463;50.988;11.332;2024-03-07T01:29:38;99644.75;;;4.26;74.78
84821;BME280;75463;50.988;11.332;2024-03-07T01:32:06;99642.19;;;4.31;74.65
84821;BME280;75463;50.988;11.332;2024-03-07T01:34:31;99647.19;;;4.27;75.05
84821;BME280;75463;50.988;11.332;2024-03-07T01:36:56;99638.97;;;4.29;74.88
84821;BME280;75463;50.988;11.332;2024-03-07T01:39:22;99640.00;;;4.28;75.43
84821;BME280;75463;50.988;11.332;2024-03-07T01:41:48;99648.88;;;4.17;75.53
84821;BME280;75463;50.988;11.332;2024-03-07T01:44:13;99638.78;;;4.19;75.17
84821;BME280;75463;50.988;11.332;2024-03-07T01:46:39;99638.88;;;4.24;75.19
84821;BME280;75463;50.988;11.332;2024-03-07T01:49:06;99638.78;;;4.19;75.13
84821;BME280;75463;50.988;11.332;2024-03-07T01:51:33;99634.09;;;4.09;76.55
84821;BME280;75463;50.988;11.332;2024-03-07T01:53:59;99627.47;;;4.12;76.21
84821;BME280;75463;50.988;11.332;2024-03-07T01:56:24;99625.63;;;4.12;76.71
84821;BME280;75463;50.988;11.332;2024-03-07T01:58:52;99623.84;;;4.18;76.60
84821;BME280;75463;50.988;11.332;2024-03-07T02:01:18;99631.38;;;4.21;76.74
84821;BME280;75463;50.988;11.332;2024-03-07T02:03:44;99621.84;;;4.25;76.19
84821;BME280;75463;50.988;11.332;2024-03-07T02:06:10;99629.81;;;4.25;76.57
84821;BME280;75463;50.988;11.332;2024-03-07T02:08:35;99619.44;;;4.23;76.62
84821;BME280;75463;50.988;11.332;2024-03-07T02:11:01;99630.06;;;4.23;77.58
84821;BME280;75463;50.988;11.332;2024-03-07T02:13:26;99627.00;;;4.15;78.12
84821;BME280;75463;50.988;11.332;2024-03-07T02:15:52;99606.13;;;4.23;77.49
84821;BME280;75463;50.988;11.332;2024-03-07T02:18:20;99617.09;;;4.27;77.62
84821;BME280;75463;50.988;11.332;2024-03-07T02:20:46;99610.66;;;4.23;78.66
84821;BME280;75463;50.988;11.332;2024-03-07T02:23:12;99617.75;;;4.34;77.90
84821;BME280;75463;50.988;11.332;2024-03-07T02:25:37;99614.44;;;4.27;78.14
84821;BME280;75463;50.988;11.332;2024-03-07T02:28:04;99614.44;;;4.27;78.67
84821;BME280;75463;50.988;11.332;2024-03-07T02:30:30;99614.44;;;4.27;78.68
84821;BME280;75463;50.988;11.332;2024-03-07T02:32:57;99616.16;;;4.33;79.19
84821;BME280;75463;50.988;11.332;2024-03-07T02:35:24;99614.88;;;4.35;79.26
84821;BME280;75463;50.988;11.332;2024-03-07T02:37:50;99611.00;;;4.43;79.14
84821;BME280;75463;50.988;11.332;2024-03-07T02:40:15;99618.31;;;4.36;79.45
84821;BME280;75463;50.988;11.332;2024-03-07T02:42:41;99607.34;;;4.32;79.84
84821;BME280;75463;50.988;11.332;2024-03-07T02:45:07;99600.06;;;4.28;79.92
84821;BME280;75463;50.988;11.332;2024-03-07T02:47:32;99604.13;;;4.30;80.49
84821;BME280;75463;50.988;11.332;2024-03-07T02:49:58;99604.59;;;4.27;80.37
84821;BME280;75463;50.988;11.332;2024-03-07T02:52:24;99609.44;;;4.30;80.66
84821;BME280;75463;50.988;11.332;2024-03-07T02:54:49;99602.00;;;4.32;81.27
84821;BME280;75463;50.988;11.332;2024-03-07T02:57:14;99608.16;;;4.33;81.60
84821;BME280;75463;50.988;11.332;2024-03-07T02:59:41;99600.72;;;4.35;81.02
84821;BME280;75463;50.988;11.332;2024-03-07T03:02:07;99595.88;;;4.32;81.78
84821;BME280;75463;50.988;11.332;2024-03-07T03:04:32;99604.78;;;4.37;81.66
84821;BME280;75463;50.988;11.332;2024-03-07T03:06:58;99597.34;;;4.39;81.51
84821;BME280;75463;50.988;11.332;2024-03-07T03:09:23;99601.63;;;4.40;81.70
84821;BME280;75463;50.988;11.332;2024-03-07T03:11:49;99600.59;;;4.41;81.23
84821;BME280;75463;50.988;11.332;2024-03-07T03:14:14;99590.75;;;4.42;81.61
84821;BME280;75463;50.988;11.332;2024-03-07T03:16:43;99595.09;;;4.47;82.01
84821;BME280;75463;50.988;11.332;2024-03-07T03:19:12;99599.09;;;4.34;81.71
84821;BME280;75463;50.988;11.332;2024-03-07T03:21:37;99599.03;;;4.29;81.97
84821;BME280;75463;50.988;11.332;2024-03-07T03:24:03;99601.78;;;4.34;82.38
84821;BME280;75463;50.988;11.332;2024-03-07T03:26:29;99598.66;;;4.37;82.24
84821;BME280;75463;50.988;11.332;2024-03-07T03:28:56;99598.72;;;4.42;81.47
84821;BME280;75463;50.988;11.332;2024-03-07T03:31:22;99600.91;;;4.28;82.44
84821;BME280;75463;50.988;11.332;2024-03-07T03:33:47;99597.44;;;4.44;81.25
84821;BME280;75463;50.988;11.332;2024-03-07T03:36:13;99598.34;;;4.49;81.23
84821;BME280;75463;50.988;11.332;2024-03-07T03:38:39;99596.53;;;4.39;81.60
84821;BME280;75463;50.988;11.332;2024-03-07T03:41:04;99588.06;;;4.42;82.04
84821;BME280;75463;50.988;11.332;2024-03-07T03:43:30;99599.94;;;4.34;82.36
84821;BME280;75463;50.988;11.332;2024-03-07T03:45:55;99605.00;;;4.36;82.05
84821;BME280;75463;50.988;11.332;2024-03-07T03:48:21;99588.56;;;4.39;82.06
84821;BME280;75463;50.988;11.332;2024-03-07T03:50:47;99598.16;;;4.40;81.77
84821;BME280;75463;50.988;11.332;2024-03-07T03:53:12;99593.56;;;4.35;81.55
84821;BME280;75463;50.988;11.332;2024-03-07T03:55:37;99602.97;;;4.26;81.76
84821;BME280;75463;50.988;11.332;2024-03-07T03:58:03;99598.00;;;4.30;81.51
84821;BME280;75463;50.988;11.332;2024-03-07T04:00:30;99593.63;;;4.24;82.05
84821;BME280;75463;50.988;11.332;2024-03-07T04:02:56;99597.34;;;4.23;81.98
84821;BME280;75463;50.988;11.332;2024-03-07T04:05:21;99593.47;;;4.14;81.74
84821;BME280;75463;50.988;11.332;2024-03-07T04:07:47;99592.81;;;4.23;82.37
84821;BME280;75463;50.988;11.332;2024-03-07T04:10:14;99604.72;;;4.04;83.57
84821;BME280;75463;50.988;11.332;2024-03-07T04:12:41;99600.00;;;4.06;84.52
84821;BME280;75463;50.988;11.332;2024-03-07T04:15:11;99606.19;;;4.12;85.19
84821;BME280;75463;50.988;11.332;2024-03-07T04:17:37;99609.38;;;3.97;86.49
84821;BME280;75463;50.988;11.332;2024-03-07T04:20:04;99603.25;;;3.97;86.78
84821;BME280;75463;50.988;11.332;2024-03-07T04:22:36;99607.13;;;3.90;87.20
84821;BME280;75463;50.988;11.332;2024-03-07T04:25:05;99600.41;;;3.87;88.56
84821;BME280;75463;50.988;11.332;2024-03-07T04:27:32;99596.97;;;3.87;89.38
84821;BME280;75463;50.988;11.332;2024-03-07T04:29:58;99606.38;;;3.78;89.66
84821;BME280;75463;50.988;11.332;2024-03-07T04:32:23;99600.13;;;3.72;90.62
84821;BME280;75463;50.988;11.332;2024-03-07T04:34:48;99590.94;;;3.63;91.07
84821;BME280;75463;50.988;11.332;2024-03-07T04:37:14;99599.44;;;3.77;91.34
84821;BME280;75463;50.988;11.332;2024-03-07T04:39:39;99593.47;;;3.86;90.67
84821;BME280;75463;50.988;11.332;2024-03-07T04:42:06;99595.09;;;3.87;90.89
84821;BME280;75463;50.988;11.332;2024-03-07T04:44:32;99586.56;;;3.85;91.20
84821;BME280;75463;50.988;11.332;2024-03-07T04:46:59;99593.16;;;3.83;91.74
84821;BME280;75463;50.988;11.332;2024-03-07T04:49:27;99599.50;;;3.82;91.28
84821;BME280;75463;50.988;11.332;2024-03-07T04:51:53;99595.50;;;3.79;91.96
84821;BME280;75463;50.988;11.332;2024-03-07T04:54:19;99599.94;;;3.90;90.96
84821;BME280;75463;50.988;11.332;2024-03-07T04:56:46;99602.84;;;3.89;92.44
84821;BME280;75463;50.988;11.332;2024-03-07T04:59:12;99593.59;;;3.91;91.83
84821;BME280;75463;50.988;11.332;2024-03-07T05:01:41;99600.66;;;3.86;92.05
84821;BME280;75463;50.988;11.332;2024-03-07T05:04:07;99593.00;;;3.89;91.46
84821;BME280;75463;50.988;11.332;2024-03-07T05:06:33;99603.56;;;3.84;92.85
84821;BME280;75463;50.988;11.332;2024-03-07T05:09:02;99597.44;;;3.84;92.43
84821;BME280;75463;50.988;11.332;2024-03-07T05:11:31;99596.97;;;3.87;92.95
84821;BME280;75463;50.988;11.332;2024-03-07T05:13:57;99599.28;;;3.83;92.19
84821;BME280;75463;50.988;11.332;2024-03-07T05:16:26;99599.84;;;3.85;92.67
84821;BME280;75463;50.988;11.332;2024-03-07T05:18:52;99599.38;;;3.88;92.63
84821;BME280;75463;50.988;11.332;2024-03-07T05:21:21;99596.13;;;3.86;92.79
84821;BME280;75463;50.988;11.332;2024-03-07T05:23:58;99600.97;;;3.89;92.93
84821;BME280;75463;50.988;11.332;2024-03-07T05:26:24;99595.22;;;3.92;93.46
84821;BME280;75463;50.988;11.332;2024-03-07T05:28:50;99601.69;;;3.85;93.00
84821;BME280;75463;50.988;11.332;2024-03-07T05:31:16;99603.06;;;3.87;93.49
84821;BME280;75463;50.988;11.332;2024-03-07T05:33:43;99593.81;;;3.90;93.63
84821;BME280;75463;50.988;11.332;2024-03-07T05:36:09;99598.06;;;3.91;93.33
84821;BME280;75463;50.988;11.332;2024-03-07T05:38:44;99596.59;;;3.83;93.61
84821;BME280;75463;50.988;11.332;2024-03-07T05:41:10;99595.66;;;3.89;93.43
84821;BME280;75463;50.988;11.332;2024-03-07T05:43:36;99595.00;;;3.82;93.66
84821;BME280;75463;50.988;11.332;2024-03-07T05:46:02;99598.78;;;3.86;92.88
84821;BME280;75463;50.988;11.332;2024-03-07T05:48:27;99601.56;;;3.91;93.38
84821;BME280;75463;50.988;11.332;2024-03-07T05:50:53;99593.72;;;3.85;93.93
84821;BME280;75463;50.988;11.332;2024-03-07T05:53:18;99599.50;;;3.82;94.57
84821;BME280;75463;50.988;11.332;2024-03-07T05:55:44;99601.22;;;3.88;94.22
84821;BME280;75463;50.988;11.332;2024-03-07T05:58:10;99601.09;;;3.94;93.43
84821;BME280;75463;50.988;11.332;2024-03-07T06:00:36;99605.13;;;3.97;93.94
84821;BME280;75463;50.988;11.332;2024-03-07T06:03:04;99602.47;;;3.97;93.48
84821;BME280;75463;50.988;11.332;2024-03-07T06:05:30;99598.19;;;4.12;93.52
84821;BME280;75463;50.988;11.332;2024-03-07T06:07:55;99605.06;;;4.08;93.02
84821;BME280;75463;50.988;11.332;2024-03-07T06:10:21;99600.63;;;4.13;93.38
84821;BME280;75463;50.988;11.332;2024-03-07T06:12:50;99600.53;;;4.08;93.60
84821;BME280;75463;50.988;11.332;2024-03-07T06:15:15;99609.81;;;4.06;93.90
84821;BME280;75463;50.988;11.332;2024-03-07T06:17:40;99617.19;;;4.15;93.85
84821;BME280;75463;50.988;11.332;2024-03-07T06:20:06;99615.94;;;4.06;94.64
84821;BME280;75463;50.988;11.332;2024-03-07T06:22:47;99610.47;;;4.13;94.60
84821;BME280;75463;50.988;11.332;2024-03-07T06:25:13;99603.16;;;4.20;93.65
84821;BME280;75463;50.988;11.332;2024-03-07T06:27:44;99602.66;;;4.23;93.84
84821;BME280;75463;50.988;11.332;2024-03-07T06:30:14;99602.66;;;4.23;94.51
84821;BME280;75463;50.988;11.332;2024-03-07T06:32:41;99601.22;;;4.32;94.26
84821;BME280;75463;50.988;11.332;2024-03-07T06:35:07;99601.22;;;4.32;93.78
84821;BME280;75463;50.988;11.332;2024-03-07T06:37:32;99611.19;;;4.25;95.02
84821;BME280;75463;50.988;11.332;2024-03-07T06:39:58;99606.28;;;4.33;94.38
84821;BME280;75463;50.988;11.332;2024-03-07T06:42:23;99601.56;;;4.35;94.78
84821;BME280;75463;50.988;11.332;2024-03-07T06:44:48;99603.97;;;4.37;94.18
84821;BME280;75463;50.988;11.332;2024-03-07T06:47:14;99598.88;;;4.51;94.30
84821;BME280;75463;50.988;11.332;2024-03-07T06:49:39;99600.41;;;4.47;93.99
84821;BME280;75463;50.988;11.332;2024-03-07T06:52:05;99585.88;;;4.55;93.74
84821;BME280;75463;50.988;11.332;2024-03-07T06:54:31;99605.41;;;4.60;93.93
84821;BME280;75463;50.988;11.332;2024-03-07T06:56:56;99602.84;;;4.65;93.42
84821;BME280;75463;50.988;11.332;2024-03-07T06:59:22;99604.13;;;4.63;93.53
84821;BME280;75463;50.988;11.332;2024-03-07T07:01:47;99600.50;;;4.69;93.67
84821;BME280;75463;50.988;11.332;2024-03-07T07:04:12;99598.47;;;4.76;92.83
84821;BME280;75463;50.988;11.332;2024-03-07T07:06:40;99602.19;;;4.75;93.41
84821;BME280;75463;50.988;11.332;2024-03-07T07:09:08;99604.28;;;4.73;92.64
84821;BME280;75463;50.988;11.332;2024-03-07T07:11:33;99604.19;;;4.68;93.19
84821;BME280;75463;50.988;11.332;2024-03-07T07:14:00;99609.28;;;4.69;93.57
84821;BME280;75463;50.988;11.332;2024-03-07T07:16:27;99601.44;;;4.79;92.96
84821;BME280;75463;50.988;11.332;2024-03-07T07:18:55;99615.44;;;4.70;93.38
84821;BME280;75463;50.988;11.332;2024-03-07T07:21:20;99605.41;;;4.77;92.45
84821;BME280;75463;50.988;11.332;2024-03-07T07:23:46;99606.78;;;4.79;92.54
84821;BME280;75463;50.988;11.332;2024-03-07T07:26:12;99609.94;;;4.76;92.20
84821;BME280;75463;50.988;11.332;2024-03-07T07:28:37;99599.28;;;4.76;92.37
84821;BME280;75463;50.988;11.332;2024-03-07T07:31:04;99603.56;;;4.77;92.16
84821;BME280;75463;50.988;11.332;2024-03-07T07:33:29;99610.03;;;4.81;92.85
84821;BME280;75463;50.988;11.332;2024-03-07T07:35:56;99611.38;;;4.84;92.54
84821;BME280;75463;50.988;11.332;2024-03-07T07:38:22;99598.47;;;4.76;92.83
84821;BME280;75463;50.988;11.332;2024-03-07T07:40:47;99611.13;;;4.85;92.24
84821;BME280;75463;50.988;11.332;2024-03-07T07:43:13;99606.53;;;4.81;92.84
84821;BME280;75463;50.988;11.332;2024-03-07T07:45:39;99607.91;;;4.83;92.25
84821;BME280;75463;50.988;11.332;2024-03-07T07:48:04;99597.56;;;4.87;91.34
84821;BME280;75463;50.988;11.332;2024-03-07T07:50:30;99608.56;;;4.90;90.99
84821;BME280;75463;50.988;11.332;2024-03-07T07:52:58;99606.03;;;5.00;90.75
84821;BME280;75463;50.988;11.332;2024-03-07T07:55:25;99602.94;;;5.08;90.26
84821;BME280;75463;50.988;11.332;2024-03-07T07:58:00;99609.88;;;5.09;90.02
84821;BME280;75463;50.988;11.332;2024-03-07T08:00:29;99609.88;;;5.09;90.37
84821;BME280;75463;50.988;11.332;2024-03-07T08:02:59;99602.44;;;5.11;90.09
84821;BME280;75463;50.988;11.332;2024-03-07T08:05:30;99611.31;;;5.16;89.63
84821;BME280;75463;50.988;11.332;2024-03-07T08:07:59;99610.53;;;5.16;90.21
84821;BME280;75463;50.988;11.332;2024-03-07T08:10:26;99607.13;;;5.20;88.86
84821;BME280;75463;50.988;11.332;2024-03-07T08:12:54;99611.00;;;5.13;88.92
84821;BME280;75463;50.988;11.332;2024-03-07T08:15:19;99614.47;;;5.13;87.94
84821;BME280;75463;50.988;11.332;2024-03-07T08:17:46;99614.13;;;5.26;87.32
84821;BME280;75463;50.988;11.332;2024-03-07T08:20:16;99616.00;;;5.26;86.39
84821;BME280;75463;50.988;11.332;2024-03-07T08:22:43;99608.97;;;6.05;82.73
84821;BME280;75463;50.988;11.332;2024-03-07T08:25:10;99608.47;;;6.70;78.47
84821;BME280;75463;50.988;11.332;2024-03-07T08:27:36;99597.03;;;7.77;77.17
84821;BME280;75463;50.988;11.332;2024-03-07T08:30:03;99601.94;;;8.04;73.34
84821;BME280;75463;50.988;11.332;2024-03-07T08:32:31;99593.41;;;8.12;71.74
84821;BME280;75463;50.988;11.332;2024-03-07T08:34:57;99603.50;;;7.91;73.65
84821;BME280;75463;50.988;11.332;2024-03-07T08:37:22;99590.50;;;8.53;68.63
84821;BME280;75463;50.988;11.332;2024-03-07T08:39:47;99596.91;;;8.97;69.52
84821;BME280;75463;50.988;11.332;2024-03-07T08:42:13;99603.09;;;8.33;69.18
84821;BME280;75463;50.988;11.332;2024-03-07T08:44:38;99604.28;;;7.86;67.82
84821;BME280;75463;50.988;11.332;2024-03-07T08:47:03;99612.66;;;6.93;70.02
84821;BME280;75463;50.988;11.332;2024-03-07T08:49:29;99594.63;;;7.85;65.18
84821;BME280;75463;50.988;11.332;2024-03-07T08:51:54;99601.91;;;7.99;67.68
84821;BME280;75463;50.988;11.332;2024-03-07T08:54:19;99608.72;;;7.05;67.80
84821;BME280;75463;50.988;11.332;2024-03-07T08:56:45;99600.88;;;6.57;68.37
84821;BME280;75463;50.988;11.332;2024-03-07T08:59:10;99602.84;;;7.54;64.17
84821;BME280;75463;50.988;11.332;2024-03-07T09:01:41;99589.94;;;8.51;63.10
84821;BME280;75463;50.988;11.332;2024-03-07T09:04:08;99602.13;;;7.17;62.73
84821;BME280;75463;50.988;11.332;2024-03-07T09:06:34;99595.38;;;7.10;63.90
84821;BME280;75463;50.988;11.332;2024-03-07T09:08:59;99601.31;;;7.17;64.56
84821;BME280;75463;50.988;11.332;2024-03-07T09:11:24;99589.00;;;6.75;64.25
84821;BME280;75463;50.988;11.332;2024-03-07T09:13:50;99602.94;;;6.82;65.53
84821;BME280;75463;50.988;11.332;2024-03-07T09:16:15;99593.63;;;6.84;65.71
84821;BME280;75463;50.988;11.332;2024-03-07T09:18:40;99590.00;;;6.64;66.90
84821;BME280;75463;50.988;11.332;2024-03-07T09:21:06;99591.44;;;6.14;67.41
84821;BME280;75463;50.988;11.332;2024-03-07T09:23:31;99600.69;;;6.33;67.06
84821;BME280;75463;50.988;11.332;2024-03-07T09:25:56;99584.06;;;6.57;68.69
84821;BME280;75463;50.988;11.332;2024-03-07T09:28:23;99595.63;;;6.05;69.11
84821;BME280;75463;50.988;11.332;2024-03-07T09:30:49;99583.69;;;5.86;69.22
84821;BME280;75463;50.988;11.332;2024-03-07T09:33:14;99592.72;;;5.64;67.90
84821;BME280;75463;50.988;11.332;2024-03-07T09:35:41;99586.78;;;5.78;68.69
84821;BME280;75463;50.988;11.332;2024-03-07T09:38:07;99590.75;;;5.76;66.02
84821;BME280;75463;50.988;11.332;2024-03-07T09:40:32;99587.38;;;5.64;66.53
84821;BME280;75463;50.988;11.332;2024-03-07T09:42:59;99575.31;;;5.56;65.81
84821;BME280;75463;50.988;11.332;2024-03-07T09:45:29;99594.72;;;5.52;65.00
84821;BME280;75463;50.988;11.332;2024-03-07T09:47:54;99590.00;;;5.38;64.53
84821;BME280;75463;50.988;11.332;2024-03-07T09:50:21;99581.75;;;5.60;63.37
84821;BME280;75463;50.988;11.332;2024-03-07T09:52:48;99576.66;;;6.64;58.13
84821;BME280;75463;50.988;11.332;2024-03-07T09:55:17;99578.53;;;7.75;55.69
84821;BME280;75463;50.988;11.332;2024-03-07T09:57:46;99577.22;;;7.12;54.11
84821;BME280;75463;50.988;11.332;2024-03-07T10:00:12;99578.28;;;6.34;54.31
84821;BME280;75463;50.988;11.332;2024-03-07T10:02:49;99573.72;;;7.72;51.73
84821;BME280;75463;50.988;11.332;2024-03-07T10:05:15;99560.94;;;7.94;50.81
84821;BME280;75463;50.988;11.332;2024-03-07T10:07:42;99567.66;;;8.01;51.61
84821;BME280;75463;50.988;11.332;2024-03-07T10:10:07;99568.50;;;7.36;53.56
84821;BME280;75463;50.988;11.332;2024-03-07T10:12:39;99571.63;;;6.72;55.88
84821;BME280;75463;50.988;11.332;2024-03-07T10:15:04;99570.16;;;6.91;56.98
84821;BME280;75463;50.988;11.332;2024-03-07T10:17:30;99554.22;;;7.82;54.71
84821;BME280;75463;50.988;11.332;2024-03-07T10:19:58;99554.03;;;8.77;51.23
84821;BME280;75463;50.988;11.332;2024-03-07T10:22:25;99554.75;;;10.23;48.83
84821;BME280;75463;50.988;11.332;2024-03-07T10:24:56;99561.88;;;9.51;48.96
84821;BME280;75463;50.988;11.332;2024-03-07T10:27:22;99564.72;;;9.02;48.81
84821;BME280;75463;50.988;11.332;2024-03-07T10:29:51;99572.25;;;8.16;51.24
84821;BME280;75463;50.988;11.332;2024-03-07T10:32:23;99561.75;;;7.95;51.31
84821;BME280;75463;50.988;11.332;2024-03-07T10:34:51;99565.84;;;8.27;51.02
84821;BME280;75463;50.988;11.332;2024-03-07T10:37:16;99563.44;;;8.75;49.94
84821;BME280;75463;50.988;11.332;2024-03-07T10:39:46;99558.22;;;7.79;50.79
84821;BME280;75463;50.988;11.332;2024-03-07T10:42:13;99555.38;;;8.35;50.60
84821;BME280;75463;50.988;11.332;2024-03-07T10:44:51;99556.72;;;8.52;49.15
84821;BME280;75463;50.988;11.332;2024-03-07T10:47:21;99583.25;;;7.39;52.46
84821;BME280;75463;50.988;11.332;2024-03-07T10:50:07;99575.34;;;6.66;53.38
84821;BME280;75463;50.988;11.332;2024-03-07T10:52:49;99573.41;;;6.62;54.65
84821;BME280;75463;50.988;11.332;2024-03-07T11:00:38;99580.59;;;6.56;54.09
84821;BME280;75463;50.988;11.332;2024-03-07T11:03:10;99564.47;;;6.15;54.32
84821;BME280;75463;50.988;11.332;2024-03-07T11:05:36;99557.75;;;6.39;54.35
84821;BME280;75463;50.988;11.332;2024-03-07T11:08:03;99568.41;;;6.70;52.42
84821;BME280;75463;50.988;11.332;2024-03-07T11:10:38;99573.28;;;7.29;51.12
84821;BME280;75463;50.988;11.332;2024-03-07T11:13:04;99570.81;;;7.84;49.10
84821;BME280;75463;50.988;11.332;2024-03-07T11:15:32;99562.03;;;8.08;50.83
84821;BME280;75463;50.988;11.332;2024-03-07T11:17:58;99567.91;;;7.95;49.13
84821;BME280;75463;50.988;11.332;2024-03-07T11:20:25;99581.75;;;7.11;51.42
84821;BME280;75463;50.988;11.332;2024-03-07T11:22:51;99565.09;;;6.95;52.12
84821;BME280;75463;50.988;11.332;2024-03-07T11:25:21;99573.34;;;6.88;52.55
84821;BME280;75463;50.988;11.332;2024-03-07T11:27:58;99559.59;;;6.75;53.76
84821;BME280;75463;50.988;11.332;2024-03-07T11:30:23;99552.09;;;6.67;52.77
84821;BME280;75463;50.988;11.332;2024-03-07T11:32:50;99557.13;;;6.63;53.03
84821;BME280;75463;50.988;11.332;2024-03-07T11:35:31;99561.75;;;6.42;52.41
84821;BME280;75463;50.988;11.332;2024-03-07T11:37:58;99560.50;;;6.85;51.07
84821;BME280;75463;50.988;11.332;2024-03-07T11:42:54;99549.72;;;7.21;51.71
84821;BME280;75463;50.988;11.332;2024-03-07T11:45:30;99551.72;;;6.95;52.31
84821;BME280;75463;50.988;11.332;2024-03-07T11:47:59;99544.75;;;7.45;50.45
84821;BME280;75463;50.988;11.332;2024-03-07T11:50:40;99543.97;;;7.59;49.38
84821;BME280;75463;50.988;11.332;2024-03-07T11:53:07;99532.63;;;8.13;48.41
84821;BME280;75463;50.988;11.332;2024-03-07T11:55:33;99532.56;;;7.98;49.06
84821;BME280;75463;50.988;11.332;2024-03-07T11:58:15;99537.25;;;7.42;48.54
84821;BME280;75463;50.988;11.332;2024-03-07T12:00:46;99522.63;;;7.08;51.06
84821;BME280;75463;50.988;11.332;2024-03-07T12:03:16;99531.50;;;6.67;52.24
84821;BME280;75463;50.988;11.332;2024-03-07T12:05:48;99512.84;;;6.72;51.86
84821;BME280;75463;50.988;11.332;2024-03-07T12:08:14;99532.69;;;6.86;51.68
84821;BME280;75463;50.988;11.332;2024-03-07T12:10:41;99518.91;;;7.09;52.12
84821;BME280;75463;50.988;11.332;2024-03-07T12:13:11;99523.16;;;7.05;51.56
84821;BME280;75463;50.988;11.332;2024-03-07T12:15:39;99519.41;;;7.01;51.38
84821;BME280;75463;50.988;11.332;2024-03-07T12:18:05;99525.75;;;6.85;52.18
84821;BME280;75463;50.988;11.332;2024-03-07T12:20:36;99532.59;;;6.66;52.22
84821;BME280;75463;50.988;11.332;2024-03-07T12:23:02;99510.66;;;6.64;51.96
84821;BME280;75463;50.988;11.332;2024-03-07T12:25:31;99523.94;;;6.54;52.09
84821;BME280;75463;50.988;11.332;2024-03-07T12:30:29;99524.63;;;6.40;52.87
84821;BME280;75463;50.988;11.332;2024-03-07T12:32:58;99505.75;;;6.51;52.99
84821;BME280;75463;50.988;11.332;2024-03-07T12:35:24;99511.50;;;6.75;52.49
84821;BME280;75463;50.988;11.332;2024-03-07T12:37:49;99523.81;;;6.81;52.08
84821;BME280;75463;50.988;11.332;2024-03-07T12:40:15;99520.34;;;6.75;52.75
84821;BME280;75463;50.988;11.332;2024-03-07T12:42:47;99524.56;;;6.66;52.06
84821;BME280;75463;50.988;11.332;2024-03-07T12:45:13;99518.84;;;6.53;52.01
84821;BME280;75463;50.988;11.332;2024-03-07T12:47:43;99515.63;;;6.51;52.33
84821;BME280;75463;50.988;11.332;2024-03-07T12:50:09;99507.13;;;6.59;52.08
84821;BME280;75463;50.988;11.332;2024-03-07T12:52:34;99512.44;;;6.54;52.04
84821;BME280;75463;50.988;11.332;2024-03-07T12:54:59;99510.38;;;6.66;51.97
84821;BME280;75463;50.988;11.332;2024-03-07T12:57:25;99514.28;;;6.90;51.97
84821;BME280;75463;50.988;11.332;2024-03-07T12:59:50;99502.84;;;7.04;50.23
84821;BME280;75463;50.988;11.332;2024-03-07T13:02:16;99503.22;;;7.32;50.71
84821;BME280;75463;50.988;11.332;2024-03-07T13:04:41;99506.19;;;7.41;50.12
84821;BME280;75463;50.988;11.332;2024-03-07T13:07:08;99505.78;;;7.02;51.76
84821;BME280;75463;50.988;11.332;2024-03-07T13:09:33;99498.63;;;7.18;51.13